createdAt,value
2018-03-28T00:00:06.645Z,27.58
2018-03-28T00:01:10.961Z,22.85
2018-03-28T00:02:15.412Z,22.13
2018-03-28T00:03:19.782Z,35.67
2018-03-28T00:04:24.170Z,21.60
2018-03-28T00:05:28.474Z,23.95
2018-03-28T00:06:32.909Z,22.02
2018-03-28T00:07:39.001Z,23.02
2018-03-28T00:08:43.378Z,26.85
2018-03-28T00:09:48.435Z,21.37
2018-03-28T00:10:52.735Z,25.70
2018-03-28T00:11:57.062Z,21.62
2018-03-28T00:13:01.844Z,22.33
2018-03-28T00:14:06.147Z,22.42
2018-03-28T00:15:11.374Z,22.58
2018-03-28T00:16:16.419Z,22.33
2018-03-28T00:17:20.739Z,24.50
2018-03-28T00:18:25.016Z,26.83
2018-03-28T00:19:30.117Z,22.35
2018-03-28T00:20:35.606Z,25.20
2018-03-28T00:21:39.903Z,25.20
2018-03-28T00:22:44.107Z,20.67
2018-03-28T00:23:48.329Z,21.52
2018-03-28T00:24:52.956Z,22.27
2018-03-28T00:25:57.116Z,24.90
2018-03-28T00:27:01.270Z,23.87
2018-03-28T00:28:05.434Z,22.73
2018-03-28T00:29:10.567Z,21.00
2018-03-28T00:30:14.747Z,26.48
2018-03-28T00:31:19.066Z,23.10
2018-03-28T00:32:23.385Z,20.10
2018-03-28T00:33:27.770Z,23.38
2018-03-28T00:34:32.894Z,21.10
2018-03-28T00:35:37.202Z,24.20
2018-03-28T00:36:42.251Z,25.20
2018-03-28T00:37:46.751Z,20.05
2018-03-28T00:38:51.078Z,26.77
2018-03-28T00:39:55.466Z,24.20
2018-03-28T00:40:59.812Z,23.08
2018-03-28T00:42:04.245Z,28.00
2018-03-28T00:43:08.627Z,26.48
2018-03-28T00:44:12.955Z,27.40
2018-03-28T00:45:17.253Z,21.62
2018-03-28T00:46:21.621Z,24.73
2018-03-28T00:47:25.928Z,23.75
2018-03-28T00:48:30.224Z,23.08
2018-03-28T00:49:35.446Z,22.80
2018-03-28T00:50:40.494Z,24.15
2018-03-28T00:51:44.767Z,21.37
2018-03-28T00:52:50.710Z,24.67
2018-03-28T00:55:04.213Z,21.65
2018-03-28T00:56:08.506Z,22.80
2018-03-28T00:57:12.838Z,22.70
2018-03-28T00:58:17.404Z,23.35
2018-03-28T00:59:21.662Z,21.50
2018-03-28T01:00:25.766Z,22.25
2018-03-28T01:01:29.880Z,23.38
2018-03-28T01:02:34.037Z,24.75
2018-03-28T01:03:38.226Z,23.92
2018-03-28T01:04:42.477Z,23.20
2018-03-28T01:05:46.635Z,25.33
2018-03-28T01:06:50.814Z,23.73
2018-03-28T01:07:55.728Z,22.45
2018-03-28T01:08:59.916Z,20.98
2018-03-28T01:10:04.212Z,24.85
2018-03-28T01:11:08.370Z,23.50
2018-03-28T01:12:12.515Z,22.75
2018-03-28T01:13:16.768Z,21.50
2018-03-28T01:14:21.697Z,24.23
2018-03-28T01:15:26.647Z,23.12
2018-03-28T01:16:30.788Z,21.12
2018-03-28T01:17:34.952Z,26.17
2018-03-28T01:18:39.154Z,21.98
2018-03-28T01:19:43.847Z,25.30
2018-03-28T01:20:47.972Z,25.58
2018-03-28T01:21:52.164Z,23.10
2018-03-28T01:22:56.329Z,24.73
2018-03-28T01:24:00.487Z,20.50
2018-03-28T01:25:04.708Z,21.35
2018-03-28T01:26:09.224Z,23.35
2018-03-28T01:27:13.387Z,23.92
2018-03-28T01:28:17.543Z,20.10
2018-03-28T01:29:21.659Z,21.17
2018-03-28T01:30:26.910Z,23.40
2018-03-28T01:31:31.402Z,25.12
2018-03-28T01:32:36.378Z,23.23
2018-03-28T01:33:40.513Z,23.35
2018-03-28T01:34:44.678Z,23.52
2018-03-28T01:35:48.791Z,24.20
2018-03-28T01:36:52.921Z,24.60
2018-03-28T01:37:57.278Z,16.95
2018-03-28T01:39:01.635Z,23.08
2018-03-28T01:40:05.892Z,23.38
2018-03-28T01:41:10.086Z,23.00
2018-03-28T01:42:15.014Z,24.23
2018-03-28T01:43:19.153Z,27.00
2018-03-28T01:44:23.450Z,24.10
2018-03-28T01:45:27.770Z,21.95
2018-03-28T01:46:32.147Z,23.20
2018-03-28T01:47:36.493Z,23.60
2018-03-28T01:48:40.920Z,21.77
2018-03-28T01:49:45.358Z,21.00
2018-03-28T01:50:50.474Z,24.40
2018-03-28T01:51:55.639Z,23.98
2018-03-28T01:52:59.994Z,20.80
2018-03-28T01:54:04.323Z,23.60
2018-03-28T01:55:09.593Z,21.48
2018-03-28T01:56:13.954Z,22.98
2018-03-28T01:57:19.140Z,23.52
2018-03-28T01:58:24.225Z,23.30
2018-03-28T01:59:33.038Z,21.05
2018-03-28T02:00:42.171Z,22.50
2018-03-28T02:02:13.872Z,23.27
2018-03-28T02:03:18.355Z,24.10
2018-03-28T02:04:22.750Z,20.92
2018-03-28T02:05:27.107Z,24.70
2018-03-28T02:06:31.538Z,21.95
2018-03-28T02:07:37.099Z,24.05
2018-03-28T02:08:41.546Z,24.65
2018-03-28T02:09:46.388Z,19.35
2018-03-28T02:10:50.691Z,23.35
2018-03-28T02:11:55.184Z,23.83
2018-03-28T02:12:59.900Z,22.52
2018-03-28T02:14:04.283Z,21.83
2018-03-28T02:15:08.885Z,23.90
2018-03-28T02:16:13.207Z,23.20
2018-03-28T02:17:17.784Z,21.20
2018-03-28T02:18:22.116Z,21.65
2018-03-28T02:19:26.625Z,21.30
2018-03-28T02:20:30.811Z,23.20
2018-03-28T02:21:34.952Z,38.78
2018-03-28T02:22:39.098Z,20.88
2018-03-28T02:23:43.297Z,22.13
2018-03-28T02:24:48.153Z,23.05
2018-03-28T02:25:52.284Z,23.95
2018-03-28T02:26:56.441Z,21.55
2018-03-28T02:28:01.345Z,22.98
2018-03-28T02:29:05.676Z,23.27
2018-03-28T02:30:10.001Z,21.33
2018-03-28T02:31:14.376Z,21.12
2018-03-28T02:32:19.491Z,20.35
2018-03-28T02:33:23.825Z,20.05
2018-03-28T02:34:29.002Z,20.83
2018-03-28T02:35:33.313Z,22.15
2018-03-28T02:36:37.683Z,19.00
2018-03-28T02:37:41.982Z,19.87
2018-03-28T02:38:46.367Z,20.37
2018-03-28T02:39:51.481Z,20.95
2018-03-28T02:40:55.814Z,23.50
2018-03-28T02:42:00.876Z,20.30
2018-03-28T02:43:05.396Z,22.75
2018-03-28T02:44:09.712Z,19.55
2018-03-28T02:45:14.162Z,20.15
2018-03-28T02:46:19.713Z,21.55
2018-03-28T02:47:24.020Z,19.33
2018-03-28T02:48:28.334Z,19.62
2018-03-28T02:49:32.627Z,21.02
2018-03-28T02:50:37.726Z,20.37
2018-03-28T02:51:42.787Z,24.48
2018-03-28T02:52:47.247Z,18.98
2018-03-28T02:53:51.641Z,23.33
2018-03-28T02:54:56.012Z,20.70
2018-03-28T02:56:00.495Z,21.00
2018-03-28T02:57:05.705Z,20.08
2018-03-28T02:58:09.957Z,22.48
2018-03-28T02:59:14.233Z,20.05
2018-03-28T03:00:19.230Z,22.30
2018-03-28T03:01:24.347Z,18.55
2018-03-28T03:02:28.927Z,20.70
2018-03-28T03:03:33.133Z,17.77
2018-03-28T03:04:37.480Z,19.70
2018-03-28T03:05:41.715Z,19.90
2018-03-28T03:06:45.861Z,20.77
2018-03-28T03:07:50.378Z,20.25
2018-03-28T03:08:54.622Z,21.02
2018-03-28T03:09:59.116Z,19.80
2018-03-28T03:11:03.447Z,21.05
2018-03-28T03:12:07.844Z,20.40
2018-03-28T03:13:12.278Z,19.67
2018-03-28T03:14:17.342Z,19.62
2018-03-28T03:15:21.645Z,18.12
2018-03-28T03:16:26.111Z,19.85
2018-03-28T03:17:30.406Z,19.70
2018-03-28T03:18:35.248Z,23.90
2018-03-28T03:19:39.703Z,16.87
2018-03-28T03:20:44.015Z,19.48
2018-03-28T03:21:48.310Z,17.02
2018-03-28T03:22:52.700Z,18.23
2018-03-28T03:23:57.788Z,18.00
2018-03-28T03:25:02.399Z,18.17
2018-03-28T03:26:06.767Z,17.45
2018-03-28T03:27:11.311Z,20.60
2018-03-28T03:28:15.615Z,16.92
2018-03-28T03:29:19.944Z,16.67
2018-03-28T03:30:24.414Z,18.33
2018-03-28T03:31:28.737Z,16.05
2018-03-28T03:32:33.036Z,18.27
2018-03-28T03:33:37.336Z,19.27
2018-03-28T03:34:41.502Z,16.37
2018-03-28T03:35:46.439Z,17.20
2018-03-28T03:36:51.702Z,17.02
2018-03-28T03:37:56.654Z,16.58
2018-03-28T03:39:01.598Z,19.90
2018-03-28T03:40:06.659Z,17.48
2018-03-28T03:41:11.018Z,18.98
2018-03-28T03:42:15.320Z,19.85
2018-03-28T03:43:19.711Z,17.35
2018-03-28T03:44:24.064Z,18.23
2018-03-28T03:45:28.365Z,17.70
2018-03-28T03:46:32.665Z,19.23
2018-03-28T03:47:37.729Z,16.67
2018-03-28T03:48:42.029Z,16.45
2018-03-28T03:49:46.364Z,17.87
2018-03-28T03:50:50.699Z,15.70
2018-03-28T03:51:55.003Z,19.87
2018-03-28T03:52:59.591Z,19.12
2018-03-28T03:54:03.901Z,15.80
2018-03-28T03:55:38.629Z,18.15
2018-03-28T03:56:43.263Z,16.23
2018-03-28T03:57:47.595Z,16.90
2018-03-28T03:58:52.230Z,15.25
2018-03-28T03:59:56.567Z,16.87
2018-03-28T04:01:00.880Z,18.55
2018-03-28T04:02:05.063Z,18.60
2018-03-28T04:03:09.170Z,17.80
2018-03-28T04:04:13.339Z,17.00
2018-03-28T04:05:17.502Z,16.52
2018-03-28T04:06:21.611Z,15.95
2018-03-28T04:07:25.880Z,18.55
2018-03-28T04:08:30.020Z,14.05
2018-03-28T04:09:34.924Z,17.37
2018-03-28T04:10:39.084Z,18.87
2018-03-28T04:11:43.293Z,15.43
2018-03-28T04:12:47.404Z,16.98
2018-03-28T04:13:51.582Z,15.80
2018-03-28T04:14:56.516Z,16.25
2018-03-28T04:16:00.865Z,15.23
2018-03-28T04:17:06.323Z,18.23
2018-03-28T04:18:10.611Z,19.15
2018-03-28T04:19:14.982Z,16.80
2018-03-28T04:20:19.308Z,19.87
2018-03-28T04:21:23.660Z,18.33
2018-03-28T04:22:28.734Z,15.65
2018-03-28T04:23:33.083Z,16.80
2018-03-28T04:24:37.434Z,15.25
2018-03-28T04:25:41.718Z,16.37
2018-03-28T04:26:46.794Z,15.43
2018-03-28T04:27:51.090Z,18.05
2018-03-28T04:28:55.659Z,15.65
2018-03-28T04:30:01.072Z,14.65
2018-03-28T04:31:06.535Z,15.88
2018-03-28T04:32:10.898Z,15.27
2018-03-28T04:33:15.762Z,18.10
2018-03-28T04:34:20.392Z,16.67
2018-03-28T04:35:25.403Z,15.55
2018-03-28T04:36:29.660Z,16.00
2018-03-28T04:37:33.799Z,16.15
2018-03-28T04:38:38.703Z,16.70
2018-03-28T04:39:42.952Z,15.80
2018-03-28T04:40:47.219Z,17.27
2018-03-28T04:41:51.387Z,17.23
2018-03-28T04:42:55.539Z,16.00
2018-03-28T04:44:00.441Z,17.62
2018-03-28T04:45:05.058Z,14.52
2018-03-28T04:46:10.361Z,18.40
2018-03-28T04:47:14.782Z,15.55
2018-03-28T04:48:19.421Z,16.20
2018-03-28T04:49:24.187Z,15.65
2018-03-28T04:50:28.523Z,14.85
2018-03-28T04:51:32.855Z,13.80
2018-03-28T04:52:37.175Z,18.70
2018-03-28T04:53:42.269Z,16.02
2018-03-28T04:54:46.808Z,14.50
2018-03-28T04:55:52.044Z,16.45
2018-03-28T04:56:56.355Z,17.80
2018-03-28T04:58:01.498Z,16.02
2018-03-28T04:59:05.814Z,17.75
2018-03-28T05:00:10.187Z,17.02
2018-03-28T05:01:15.655Z,15.10
2018-03-28T05:02:20.135Z,18.60
2018-03-28T05:03:24.508Z,15.70
2018-03-28T05:04:28.936Z,15.95
2018-03-28T05:05:34.029Z,16.02
2018-03-28T05:06:38.555Z,15.55
2018-03-28T05:07:42.887Z,17.12
2018-03-28T05:08:47.953Z,20.52
2018-03-28T05:09:52.254Z,17.30
2018-03-28T05:10:56.581Z,17.23
2018-03-28T05:12:00.871Z,15.30
2018-03-28T05:13:05.219Z,16.30
2018-03-28T05:14:09.419Z,16.10
2018-03-28T05:15:13.580Z,20.30
2018-03-28T05:16:17.748Z,18.30
2018-03-28T05:17:21.909Z,16.12
2018-03-28T05:18:26.218Z,15.77
2018-03-28T05:19:30.400Z,17.58
2018-03-28T05:20:34.827Z,17.33
2018-03-28T05:21:39.205Z,18.12
2018-03-28T05:22:44.300Z,18.50
2018-03-28T05:23:48.926Z,18.10
2018-03-28T05:24:54.044Z,17.27
2018-03-28T05:25:58.377Z,19.05
2018-03-28T05:27:02.868Z,17.95
2018-03-28T05:28:07.995Z,18.98
2018-03-28T05:29:12.338Z,19.83
2018-03-28T05:30:16.701Z,16.33
2018-03-28T05:31:21.052Z,17.42
2018-03-28T05:32:25.192Z,19.52
2018-03-28T05:33:29.472Z,18.73
2018-03-28T05:34:34.177Z,18.65
2018-03-28T05:35:38.340Z,17.55
2018-03-28T05:36:42.486Z,17.92
2018-03-28T05:37:47.050Z,21.00
2018-03-28T05:38:51.179Z,18.33
2018-03-28T05:39:56.504Z,21.95
2018-03-28T05:41:01.456Z,19.10
2018-03-28T05:42:05.672Z,18.33
2018-03-28T05:43:09.791Z,18.58
2018-03-28T05:44:14.927Z,17.40
2018-03-28T05:45:19.727Z,18.42
2018-03-28T05:46:23.934Z,19.00
2018-03-28T05:47:28.109Z,19.92
2018-03-28T05:48:32.255Z,20.35
2018-03-28T05:49:36.434Z,21.90
2018-03-28T05:50:40.743Z,19.80
2018-03-28T05:51:45.019Z,18.80
2018-03-28T05:52:50.159Z,20.23
2018-03-28T05:53:54.491Z,18.12
2018-03-28T05:54:58.847Z,19.35
2018-03-28T05:56:04.154Z,24.05
2018-03-28T05:57:09.102Z,20.50
2018-03-28T05:58:14.930Z,20.42
2018-03-28T05:59:20.658Z,20.12
2018-03-28T06:00:24.857Z,17.17
2018-03-28T06:01:29.206Z,22.37
2018-03-28T06:02:34.319Z,20.02
2018-03-28T06:03:38.476Z,21.20
2018-03-28T06:04:43.132Z,23.95
2018-03-28T06:05:47.723Z,22.08
2018-03-28T06:06:51.895Z,21.35
2018-03-28T06:07:56.806Z,22.27
2018-03-28T06:09:01.143Z,22.48
2018-03-28T06:10:05.471Z,19.92
2018-03-28T06:11:09.843Z,20.33
2018-03-28T06:12:14.870Z,20.88
2018-03-28T06:13:19.483Z,22.55
2018-03-28T06:14:24.564Z,20.12
2018-03-28T06:15:29.692Z,20.70
2018-03-28T06:16:34.385Z,20.50
2018-03-28T06:17:39.147Z,25.83
2018-03-28T06:18:43.463Z,21.37
2018-03-28T06:19:48.531Z,21.48
2018-03-28T06:20:53.118Z,22.55
2018-03-28T06:21:57.938Z,26.70
2018-03-28T06:23:02.323Z,23.25
2018-03-28T06:24:07.204Z,23.90
2018-03-28T06:25:11.555Z,24.90
2018-03-28T06:26:15.910Z,28.05
2018-03-28T06:27:20.278Z,25.20
2018-03-28T06:28:24.773Z,29.25
2018-03-28T06:29:30.126Z,26.62
2018-03-28T06:30:34.693Z,22.30
2018-03-28T06:31:39.115Z,24.75
2018-03-28T06:32:44.303Z,25.67
2018-03-28T06:33:49.027Z,24.42
2018-03-28T06:34:53.868Z,23.38
2018-03-28T06:35:58.429Z,25.25
2018-03-28T06:37:02.908Z,22.87
2018-03-28T06:38:08.069Z,26.45
2018-03-28T06:39:13.814Z,24.60
2018-03-28T06:40:19.317Z,27.65
2018-03-28T06:41:24.366Z,31.70
2018-03-28T06:42:28.787Z,26.52
2018-03-28T06:43:33.279Z,26.65
2018-03-28T06:44:38.423Z,28.42
2018-03-28T06:45:42.814Z,29.17
2018-03-28T06:46:47.773Z,28.55
2018-03-28T06:47:52.095Z,28.50
2018-03-28T06:48:56.298Z,25.80
2018-03-28T06:50:02.214Z,26.35
2018-03-28T06:51:07.170Z,26.48
2018-03-28T06:52:11.483Z,27.87
2018-03-28T06:53:16.994Z,27.02
2018-03-28T06:54:22.258Z,28.90
2018-03-28T06:55:27.391Z,30.70
2018-03-28T06:56:32.595Z,29.30
2018-03-28T06:57:37.031Z,26.92
2018-03-28T06:58:42.259Z,28.67
2018-03-28T06:59:48.188Z,28.50
2018-03-28T07:00:52.443Z,31.92
2018-03-28T07:01:56.627Z,27.70
2018-03-28T07:03:00.790Z,32.47
2018-03-28T07:04:04.985Z,29.30
2018-03-28T07:05:09.195Z,25.80
2018-03-28T07:06:13.503Z,32.70
2018-03-28T07:07:18.134Z,29.42
2018-03-28T07:08:22.546Z,32.40
2018-03-28T07:09:27.194Z,30.52
2018-03-28T07:10:31.843Z,28.73
2018-03-28T07:11:36.824Z,31.80
2018-03-28T07:12:42.264Z,32.65
2018-03-28T07:13:47.742Z,35.33
2018-03-28T07:14:53.553Z,27.67
2018-03-28T07:15:57.739Z,31.08
2018-03-28T07:17:01.922Z,35.03
2018-03-28T07:18:06.941Z,33.58
2018-03-28T07:19:11.119Z,29.80
2018-03-28T07:20:15.484Z,29.35
2018-03-28T07:21:19.852Z,29.98
2018-03-28T07:22:24.167Z,32.25
2018-03-28T07:23:28.559Z,34.08
2018-03-28T07:24:32.976Z,31.02
2018-03-28T07:25:37.392Z,30.35
2018-03-28T07:26:42.362Z,29.08
2018-03-28T07:27:46.545Z,31.33
2018-03-28T07:28:50.854Z,31.70
2018-03-28T07:29:54.998Z,32.22
2018-03-28T07:30:59.295Z,33.92
2018-03-28T07:32:04.171Z,34.70
2018-03-28T07:33:09.106Z,33.05
2018-03-28T07:34:13.621Z,33.83
2018-03-28T07:35:18.012Z,37.08
2018-03-28T07:36:24.136Z,32.95
2018-03-28T07:37:30.372Z,31.80
2018-03-28T07:38:34.925Z,28.02
2018-03-28T07:39:39.922Z,31.37
2018-03-28T07:40:44.151Z,33.80
2018-03-28T07:41:48.361Z,35.88
2018-03-28T07:42:53.509Z,32.85
2018-03-28T07:43:57.634Z,30.55
2018-03-28T07:45:01.771Z,31.45
2018-03-28T07:46:06.160Z,29.90
2018-03-28T07:47:12.663Z,34.70
2018-03-28T07:48:18.604Z,33.08
2018-03-28T07:49:24.319Z,32.15
2018-03-28T07:50:30.723Z,33.22
2018-03-28T07:51:36.116Z,33.45
2018-03-28T07:52:40.527Z,31.73
2018-03-28T07:53:45.451Z,33.05
2018-03-28T07:54:49.905Z,34.17
2018-03-28T07:55:54.679Z,35.67
2018-03-28T07:56:59.879Z,32.47
2018-03-28T07:58:04.235Z,35.03
2018-03-28T07:59:09.303Z,36.33
2018-03-28T08:00:13.498Z,33.97
2018-03-28T08:01:18.039Z,30.40
2018-03-28T08:02:22.167Z,34.67
2018-03-28T08:03:26.367Z,37.65
2018-03-28T08:04:31.306Z,31.55
2018-03-28T08:05:36.308Z,33.97
2018-03-28T08:06:40.476Z,32.47
2018-03-28T08:07:45.401Z,35.90
2018-03-28T08:08:49.599Z,35.10
2018-03-28T08:09:53.811Z,30.55
2018-03-28T08:10:58.158Z,34.42
2018-03-28T08:12:03.383Z,36.53
2018-03-28T08:13:07.721Z,34.30
2018-03-28T08:14:12.803Z,35.78
2018-03-28T08:15:20.078Z,34.55
2018-03-28T08:16:36.649Z,36.28
2018-03-28T08:17:41.172Z,38.22
2018-03-28T08:18:45.598Z,37.13
2018-03-28T08:19:49.958Z,37.70
2018-03-28T08:20:54.139Z,35.92
2018-03-28T08:21:58.376Z,36.78
2018-03-28T08:23:02.545Z,37.10
2018-03-28T08:24:07.458Z,33.25
2018-03-28T08:25:12.378Z,40.83
2018-03-28T08:26:16.610Z,34.20
2018-03-28T08:27:21.560Z,39.20
2018-03-28T08:28:25.955Z,41.70
2018-03-28T08:29:30.294Z,37.75
2018-03-28T08:30:34.830Z,35.28
2018-03-28T08:31:40.346Z,41.65
2018-03-28T08:32:45.069Z,39.55
2018-03-28T08:33:49.392Z,40.17
2018-03-28T08:34:53.787Z,47.20
2018-03-28T08:35:58.322Z,39.67
2018-03-28T08:37:03.684Z,41.80
2018-03-28T08:38:08.049Z,36.03
2018-03-28T08:39:12.330Z,37.60
2018-03-28T08:40:16.734Z,36.63
2018-03-28T08:41:24.265Z,38.67
2018-03-28T08:42:28.738Z,43.25
2018-03-28T08:43:33.022Z,38.63
2018-03-28T08:44:40.198Z,35.10
2018-03-28T08:45:48.363Z,37.25
2018-03-28T08:46:53.444Z,39.47
2018-03-28T08:47:57.671Z,38.25
2018-03-28T08:49:01.836Z,34.67
2018-03-28T08:50:06.051Z,38.53
2018-03-28T08:51:10.305Z,36.90
2018-03-28T08:52:15.341Z,39.92
2018-03-28T08:53:20.306Z,39.35
2018-03-28T08:54:28.158Z,42.45
2018-03-28T08:56:48.560Z,40.38
2018-03-28T08:57:54.739Z,40.38
2018-03-28T08:58:58.935Z,45.90
2018-03-28T09:00:03.115Z,40.40
2018-03-28T09:01:08.442Z,38.35
2018-03-28T09:02:12.970Z,43.15
2018-03-28T09:03:17.110Z,45.95
2018-03-28T09:04:22.572Z,41.33
2018-03-28T09:05:27.491Z,45.85
2018-03-28T09:06:31.740Z,44.38
2018-03-28T09:07:36.122Z,41.80
2018-03-28T09:08:41.419Z,38.67
2018-03-28T09:09:45.563Z,38.28
2018-03-28T09:11:07.614Z,43.05
2018-03-28T09:12:12.403Z,38.65
2018-03-28T09:13:17.330Z,40.22
2018-03-28T09:14:22.346Z,43.58
2018-03-28T09:15:26.512Z,40.55
2018-03-28T09:16:32.974Z,40.65
2018-03-28T09:17:37.401Z,42.90
2018-03-28T09:18:42.803Z,41.05
2018-03-28T09:19:48.244Z,38.50
2018-03-28T09:20:56.398Z,40.58
2018-03-28T09:22:00.892Z,46.15
2018-03-28T09:23:05.832Z,36.20
2018-03-28T09:24:10.023Z,45.33
2018-03-28T09:25:15.105Z,43.80
2018-03-28T09:26:19.335Z,36.33
2018-03-28T09:27:24.447Z,41.65
2018-03-28T09:28:29.888Z,41.63
2018-03-28T09:29:35.115Z,40.33
2018-03-28T09:30:39.508Z,36.95
2018-03-28T09:31:43.887Z,41.37
2018-03-28T09:32:48.180Z,43.67
2018-03-28T09:33:52.950Z,45.85
2018-03-28T09:34:58.229Z,38.75
2018-03-28T09:36:02.823Z,40.70
2018-03-28T09:37:08.735Z,35.83
2018-03-28T09:38:13.266Z,38.10
2018-03-28T09:39:18.264Z,40.22
2018-03-28T09:40:23.698Z,40.92
2018-03-28T09:41:28.961Z,40.83
2018-03-28T09:42:34.363Z,43.33
2018-03-28T09:43:42.786Z,39.72
2018-03-28T09:44:48.364Z,44.67
2018-03-28T09:45:52.578Z,48.95
2018-03-28T09:46:57.012Z,38.65
2018-03-28T09:48:01.366Z,40.17
2018-03-28T09:49:12.056Z,45.88
2018-03-28T09:50:18.247Z,36.58
2018-03-28T09:51:25.685Z,40.20
2018-03-28T09:52:30.103Z,43.15
2018-03-28T09:53:34.438Z,40.50
2018-03-28T09:54:40.909Z,42.90
2018-03-28T09:55:45.702Z,43.03
2018-03-28T09:56:52.592Z,42.47
2018-03-28T09:57:57.099Z,39.15
2018-03-28T09:59:01.836Z,42.17
2018-03-28T10:00:07.078Z,38.28
2018-03-28T10:01:15.891Z,43.22
2018-03-28T10:02:27.229Z,37.90
2018-03-28T10:03:32.232Z,40.30
2018-03-28T10:04:40.822Z,37.45
2018-03-28T10:05:49.929Z,48.40
2018-03-28T10:06:54.122Z,40.65
2018-03-28T10:07:58.871Z,43.28
2018-03-28T10:09:03.229Z,38.97
2018-03-28T10:10:10.215Z,35.58
2018-03-28T10:11:15.474Z,42.05
2018-03-28T10:12:20.208Z,41.13
2018-03-28T10:13:24.657Z,42.15
2018-03-28T10:14:45.154Z,38.25
2018-03-28T10:15:50.535Z,37.08
2018-03-28T10:16:55.614Z,40.75
2018-03-28T10:18:02.651Z,39.03
2018-03-28T10:19:08.788Z,43.97
2018-03-28T10:20:13.185Z,36.92
2018-03-28T10:21:17.713Z,37.70
2018-03-28T10:22:21.989Z,37.88
2018-03-28T10:23:27.125Z,39.55
2018-03-28T10:24:31.829Z,40.78
2018-03-28T10:25:36.479Z,45.12
2018-03-28T10:26:40.635Z,38.45
2018-03-28T10:27:44.824Z,43.45
2018-03-28T10:28:50.062Z,45.80
2018-03-28T10:29:54.987Z,47.85
2018-03-28T10:31:00.205Z,37.45
2018-03-28T10:32:04.715Z,42.72
2018-03-28T10:33:09.919Z,34.90
2018-03-28T10:34:14.216Z,36.90
2018-03-28T10:35:19.267Z,41.05
2018-03-28T10:36:23.788Z,46.80
2018-03-28T10:37:29.498Z,38.75
2018-03-28T10:38:33.701Z,39.50
2018-03-28T10:39:38.045Z,37.90
2018-03-28T10:40:43.328Z,37.30
2018-03-28T10:41:53.514Z,42.03
2018-03-28T10:42:58.059Z,40.65
2018-03-28T10:44:02.267Z,43.83
2018-03-28T10:45:07.356Z,39.17
2018-03-28T10:46:13.420Z,41.40
2018-03-28T10:47:18.468Z,38.05
2018-03-28T10:48:22.810Z,42.40
2018-03-28T10:49:27.812Z,40.88
2018-03-28T10:50:32.159Z,39.15
2018-03-28T10:51:40.592Z,39.15
2018-03-28T10:52:46.026Z,43.17
2018-03-28T10:53:53.860Z,40.00
2018-03-28T10:55:01.834Z,37.47
2018-03-28T10:56:09.074Z,38.05
2018-03-28T10:57:16.126Z,42.17
2018-03-28T10:58:23.450Z,42.33
2018-03-28T10:59:33.357Z,38.65
2018-03-28T11:00:40.502Z,38.90
2018-03-28T11:01:45.628Z,37.30
2018-03-28T11:02:55.551Z,38.13
2018-03-28T11:03:59.832Z,37.53
2018-03-28T11:05:04.668Z,38.75
2018-03-28T11:06:14.938Z,34.95
2018-03-28T11:07:23.951Z,35.83
2018-03-28T11:08:35.071Z,33.15
2018-03-28T11:09:40.565Z,36.10
2018-03-28T11:10:50.396Z,39.53
2018-03-28T11:11:59.808Z,37.13
2018-03-28T11:13:04.749Z,38.38
2018-03-28T11:14:09.095Z,37.53
2018-03-28T11:15:28.282Z,37.08
2018-03-28T11:16:49.617Z,33.90
2018-03-28T11:18:03.081Z,38.67
2018-03-28T11:19:24.506Z,36.38
2018-03-28T11:20:31.954Z,35.35
2018-03-28T11:21:44.133Z,37.72
2018-03-28T11:22:54.962Z,37.28
2018-03-28T11:24:00.289Z,37.40
2018-03-28T11:25:06.203Z,35.55
2018-03-28T11:26:12.592Z,34.22
2018-03-28T11:27:23.114Z,44.78
2018-03-28T11:28:31.875Z,37.65
2018-03-28T11:29:36.557Z,33.33
2018-03-28T11:30:40.927Z,38.88
2018-03-28T11:31:48.172Z,31.73
2018-03-28T11:32:52.776Z,40.95
2018-03-28T11:33:59.186Z,34.63
2018-03-28T11:35:03.443Z,38.97
2018-03-28T11:36:07.989Z,31.65
2018-03-28T11:37:12.426Z,31.75
2018-03-28T11:38:18.474Z,33.33
2018-03-28T11:39:24.740Z,32.80
2018-03-28T11:40:30.004Z,35.53
2018-03-28T11:41:42.468Z,30.40
2018-03-28T11:43:07.648Z,32.58
2018-03-28T11:44:14.795Z,29.80
2018-03-28T11:45:20.521Z,31.75
2018-03-28T11:46:26.215Z,37.58
2018-03-28T11:47:40.321Z,36.42
2018-03-28T11:48:46.431Z,32.47
2018-03-28T11:49:51.255Z,34.03
2018-03-28T11:50:57.644Z,28.27
2018-03-28T11:52:05.919Z,32.08
2018-03-28T11:53:11.872Z,30.02
2018-03-28T11:54:17.278Z,32.53
2018-03-28T11:55:21.857Z,27.23
2018-03-28T11:56:28.890Z,30.73
2018-03-28T11:57:38.719Z,29.83
2018-03-28T11:58:44.759Z,28.67
2018-03-28T11:59:50.261Z,28.65
2018-03-28T12:00:55.119Z,31.00
2018-03-28T12:02:00.755Z,28.52
2018-03-28T12:03:07.155Z,28.52
2018-03-28T12:04:11.619Z,27.30
2018-03-28T12:05:17.798Z,28.00
2018-03-28T12:06:25.172Z,26.33
2018-03-28T12:07:30.274Z,27.30
2018-03-28T12:08:35.878Z,25.60
2018-03-28T12:09:40.551Z,23.05
2018-03-28T12:10:45.065Z,24.25
2018-03-28T12:11:50.641Z,37.15
2018-03-28T12:12:55.346Z,66.22
2018-03-28T12:13:59.827Z,91.35
2018-03-28T12:15:05.966Z,384.85
2018-03-28T12:16:11.568Z,141.10
2018-03-28T12:17:16.189Z,131.75
2018-03-28T12:18:24.789Z,114.43
2018-03-28T12:19:35.726Z,111.25
2018-03-28T12:20:45.512Z,132.80
2018-03-28T12:22:10.946Z,141.27
2018-03-28T12:23:20.977Z,309.23
2018-03-28T12:24:30.511Z,757.80
2018-03-28T12:25:35.860Z,629.80
2018-03-28T12:26:40.049Z,653.75
2018-03-28T12:27:45.032Z,353.35
2018-03-28T12:28:49.202Z,261.50
2018-03-28T12:29:53.485Z,350.13
2018-03-28T12:30:57.905Z,257.00
2018-03-28T12:32:02.094Z,205.82
2018-03-28T12:33:06.355Z,190.18
2018-03-28T12:34:10.536Z,182.98
2018-03-28T12:35:15.191Z,160.80
2018-03-28T12:36:19.334Z,150.85
2018-03-28T12:37:23.485Z,166.85
2018-03-28T12:38:27.723Z,161.55
2018-03-28T12:39:32.671Z,145.55
2018-03-28T12:40:36.953Z,140.60
2018-03-28T12:41:42.043Z,141.25
2018-03-28T12:42:46.629Z,134.63
2018-03-28T12:43:50.806Z,139.23
2018-03-28T12:44:55.915Z,129.55
2018-03-28T12:46:00.935Z,124.53
2018-03-28T12:47:05.271Z,123.10
2018-03-28T12:48:10.167Z,125.65
2018-03-28T12:49:15.178Z,110.45
2018-03-28T12:50:23.589Z,110.80
2018-03-28T12:51:29.307Z,112.25
2018-03-28T12:52:37.421Z,110.22
2018-03-28T12:53:55.874Z,99.32
2018-03-28T12:55:07.514Z,98.12
2018-03-28T12:56:14.625Z,97.03
2018-03-28T12:57:25.611Z,98.40
2018-03-28T12:58:30.962Z,91.65
2018-03-28T12:59:36.957Z,99.32
2018-03-28T13:00:41.468Z,94.22
2018-03-28T13:01:45.651Z,93.12
2018-03-28T13:02:49.866Z,82.93
2018-03-28T13:03:54.065Z,98.55
2018-03-28T13:05:02.832Z,78.90
2018-03-28T13:06:08.334Z,83.60
2018-03-28T13:07:13.780Z,88.18
2018-03-28T13:08:20.266Z,84.78
2018-03-28T13:09:27.500Z,73.37
2018-03-28T13:10:32.667Z,76.43
2018-03-28T13:11:37.046Z,76.72
2018-03-28T13:13:47.645Z,81.87
2018-03-28T13:14:58.857Z,70.95
2018-03-28T13:16:21.513Z,85.28
2018-03-28T13:17:37.401Z,71.72
2018-03-28T13:18:45.294Z,83.50
2018-03-28T13:19:56.144Z,86.10
2018-03-28T13:21:02.350Z,129.07
2018-03-28T13:23:31.960Z,230.50
2018-03-28T13:24:37.827Z,181.98
2018-03-28T13:25:43.373Z,205.18
2018-03-28T13:26:49.249Z,196.48
2018-03-28T13:27:53.686Z,192.02
2018-03-28T13:28:59.066Z,179.25
2018-03-28T13:30:04.921Z,170.40
2018-03-28T13:31:20.051Z,151.80
2018-03-28T13:32:29.596Z,139.00
2018-03-28T13:33:37.142Z,136.80
2018-03-28T13:34:54.412Z,133.68
2018-03-28T13:35:59.888Z,126.85
2018-03-28T13:37:05.017Z,113.43
2018-03-28T13:38:09.889Z,98.78
2018-03-28T13:39:27.845Z,103.70
2018-03-28T13:40:33.095Z,104.50
2018-03-28T13:41:39.210Z,75.45
2018-03-28T13:42:49.506Z,94.30
2018-03-28T13:43:54.368Z,79.78
2018-03-28T13:45:07.753Z,80.32
2018-03-28T13:46:13.731Z,78.37
2018-03-28T13:47:25.573Z,74.40
2018-03-28T13:48:32.153Z,65.25
2018-03-28T13:49:37.681Z,61.28
2018-03-28T13:50:45.027Z,70.87
2018-03-28T13:52:00.358Z,179.48
2018-03-28T13:53:05.266Z,120.57
2018-03-28T13:54:16.807Z,168.43
2018-03-28T13:55:21.116Z,197.95
2018-03-28T13:56:27.042Z,197.15
2018-03-28T13:57:37.461Z,178.75
2018-03-28T13:58:43.713Z,168.82
2018-03-28T13:59:52.492Z,161.73
2018-03-28T14:01:00.551Z,153.02
2018-03-28T14:02:07.648Z,154.32
2018-03-28T14:03:13.351Z,144.87
2018-03-28T14:04:18.307Z,137.75
2018-03-28T14:05:23.964Z,133.50